sensor_id;sensor_type;location;lat;lon;timestamp;temperature;humidity
18930;DHT22;43305;52.186;5.598;2022-08-24T00:02:16;19.70;99.90
18930;DHT22;43305;52.186;5.598;2022-08-24T00:04:43;19.60;99.90
18930;DHT22;43305;52.186;5.598;2022-08-24T00:07:11;19.60;99.90
18930;DHT22;43305;52.186;5.598;2022-08-24T00:09:45;19.60;99.90
18930;DHT22;43305;52.186;5.598;2022-08-24T00:12:14;19.60;99.90
18930;DHT22;43305;52.186;5.598;2022-08-24T00:14:42;19.60;99.90
18930;DHT22;43305;52.186;5.598;2022-08-24T00:17:11;19.60;99.90
18930;DHT22;43305;52.186;5.598;2022-08-24T00:19:44;19.50;99.90
18930;DHT22;43305;52.186;5.598;2022-08-24T00:22:13;19.50;99.90
18930;DHT22;43305;52.186;5.598;2022-08-24T00:24:40;19.50;99.90
18930;DHT22;43305;52.186;5.598;2022-08-24T00:27:09;19.50;99.90
18930;DHT22;43305;52.186;5.598;2022-08-24T00:29:39;19.40;99.90
18930;DHT22;43305;52.186;5.598;2022-08-24T00:32:06;19.40;99.90
18930;DHT22;43305;52.186;5.598;2022-08-24T00:34:35;19.40;99.90
18930;DHT22;43305;52.186;5.598;2022-08-24T00:37:03;19.40;99.90
18930;DHT22;43305;52.186;5.598;2022-08-24T00:39:30;19.30;99.90
18930;DHT22;43305;52.186;5.598;2022-08-24T00:41:57;19.30;99.90
18930;DHT22;43305;52.186;5.598;2022-08-24T00:44:26;19.30;99.90
18930;DHT22;43305;52.186;5.598;2022-08-24T00:46:57;19.30;99.90
18930;DHT22;43305;52.186;5.598;2022-08-24T00:49:30;19.20;99.90
18930;DHT22;43305;52.186;5.598;2022-08-24T00:52:04;19.20;99.90
18930;DHT22;43305;52.186;5.598;2022-08-24T00:54:40;19.20;99.90
18930;DHT22;43305;52.186;5.598;2022-08-24T00:57:18;19.20;99.90
18930;DHT22;43305;52.186;5.598;2022-08-24T00:59:51;19.20;99.90
18930;DHT22;43305;52.186;5.598;2022-08-24T01:02:21;19.20;99.90
18930;DHT22;43305;52.186;5.598;2022-08-24T01:04:56;19.20;99.90
18930;DHT22;43305;52.186;5.598;2022-08-24T01:07:26;19.20;99.90
18930;DHT22;43305;52.186;5.598;2022-08-24T01:09:58;19.20;99.90
18930;DHT22;43305;52.186;5.598;2022-08-24T01:12:28;19.20;99.90
18930;DHT22;43305;52.186;5.598;2022-08-24T01:14:59;19.20;99.90
18930;DHT22;43305;52.186;5.598;2022-08-24T01:17:27;19.10;99.90
18930;DHT22;43305;52.186;5.598;2022-08-24T01:20:09;19.10;99.90
18930;DHT22;43305;52.186;5.598;2022-08-24T01:22:51;19.10;99.90
18930;DHT22;43305;52.186;5.598;2022-08-24T01:25:24;19.10;99.90
18930;DHT22;43305;52.186;5.598;2022-08-24T01:27:54;19.00;99.90
18930;DHT22;43305;52.186;5.598;2022-08-24T01:30:25;19.00;99.90
18930;DHT22;43305;52.186;5.598;2022-08-24T01:32:56;19.00;99.90
18930;DHT22;43305;52.186;5.598;2022-08-24T01:35:23;19.00;99.90
18930;DHT22;43305;52.186;5.598;2022-08-24T01:38:06;18.90;99.90
18930;DHT22;43305;52.186;5.598;2022-08-24T01:40:37;18.90;99.90
18930;DHT22;43305;52.186;5.598;2022-08-24T01:43:06;18.90;99.90
18930;DHT22;43305;52.186;5.598;2022-08-24T01:45:34;18.90;99.90
18930;DHT22;43305;52.186;5.598;2022-08-24T01:48:01;18.80;99.90
18930;DHT22;43305;52.186;5.598;2022-08-24T01:50:28;18.80;99.90
18930;DHT22;43305;52.186;5.598;2022-08-24T01:52:57;18.80;99.90
18930;DHT22;43305;52.186;5.598;2022-08-24T01:55:27;18.80;99.90
18930;DHT22;43305;52.186;5.598;2022-08-24T01:58:00;18.80;99.90
18930;DHT22;43305;52.186;5.598;2022-08-24T02:00:28;18.70;99.90
18930;DHT22;43305;52.186;5.598;2022-08-24T02:02:55;18.70;99.90
18930;DHT22;43305;52.186;5.598;2022-08-24T02:05:23;18.70;99.90
18930;DHT22;43305;52.186;5.598;2022-08-24T02:07:50;18.80;99.90
18930;DHT22;43305;52.186;5.598;2022-08-24T02:10:18;18.80;99.90
18930;DHT22;43305;52.186;5.598;2022-08-24T02:12:47;18.80;99.90
18930;DHT22;43305;52.186;5.598;2022-08-24T02:15:24;18.80;99.90
18930;DHT22;43305;52.186;5.598;2022-08-24T02:17:52;18.80;99.90
18930;DHT22;43305;52.186;5.598;2022-08-24T02:20:19;18.70;99.90
18930;DHT22;43305;52.186;5.598;2022-08-24T02:22:48;18.70;99.90
18930;DHT22;43305;52.186;5.598;2022-08-24T02:25:16;18.70;99.90
18930;DHT22;43305;52.186;5.598;2022-08-24T02:27:44;18.70;99.90
18930;DHT22;43305;52.186;5.598;2022-08-24T02:30:11;18.70;99.90
18930;DHT22;43305;52.186;5.598;2022-08-24T02:32:40;18.60;99.90
18930;DHT22;43305;52.186;5.598;2022-08-24T02:35:08;18.60;99.90
18930;DHT22;43305;52.186;5.598;2022-08-24T02:37:36;18.60;99.90
18930;DHT22;43305;52.186;5.598;2022-08-24T02:40:03;18.60;99.90
18930;DHT22;43305;52.186;5.598;2022-08-24T02:42:32;18.50;99.90
18930;DHT22;43305;52.186;5.598;2022-08-24T02:45:00;18.50;99.90
18930;DHT22;43305;52.186;5.598;2022-08-24T02:47:28;18.50;99.90
18930;DHT22;43305;52.186;5.598;2022-08-24T02:49:57;18.50;99.90
18930;DHT22;43305;52.186;5.598;2022-08-24T02:52:24;18.50;99.90
18930;DHT22;43305;52.186;5.598;2022-08-24T02:54:51;18.40;99.90
18930;DHT22;43305;52.186;5.598;2022-08-24T02:57:18;18.40;99.90
18930;DHT22;43305;52.186;5.598;2022-08-24T02:59:45;18.40;99.90
18930;DHT22;43305;52.186;5.598;2022-08-24T03:02:17;18.50;99.90
18930;DHT22;43305;52.186;5.598;2022-08-24T03:04:44;18.50;99.90
18930;DHT22;43305;52.186;5.598;2022-08-24T03:07:14;18.50;99.90
18930;DHT22;43305;52.186;5.598;2022-08-24T03:09:41;18.50;99.90
18930;DHT22;43305;52.186;5.598;2022-08-24T03:12:10;18.50;99.90
18930;DHT22;43305;52.186;5.598;2022-08-24T03:14:37;18.50;99.90
18930;DHT22;43305;52.186;5.598;2022-08-24T03:17:06;18.50;99.90
18930;DHT22;43305;52.186;5.598;2022-08-24T03:19:32;18.40;99.90
18930;DHT22;43305;52.186;5.598;2022-08-24T03:22:00;18.40;99.90
18930;DHT22;43305;52.186;5.598;2022-08-24T03:24:29;18.40;99.90
18930;DHT22;43305;52.186;5.598;2022-08-24T03:26:59;18.40;99.90
18930;DHT22;43305;52.186;5.598;2022-08-24T03:29:26;18.30;99.90
18930;DHT22;43305;52.186;5.598;2022-08-24T03:31:53;18.30;99.90
18930;DHT22;43305;52.186;5.598;2022-08-24T03:34:21;18.30;99.90
18930;DHT22;43305;52.186;5.598;2022-08-24T03:36:52;18.30;99.90
18930;DHT22;43305;52.186;5.598;2022-08-24T03:39:19;18.20;99.90
18930;DHT22;43305;52.186;5.598;2022-08-24T03:41:48;18.10;99.90
18930;DHT22;43305;52.186;5.598;2022-08-24T03:44:15;18.20;99.90
18930;DHT22;43305;52.186;5.598;2022-08-24T03:46:44;18.10;99.90
18930;DHT22;43305;52.186;5.598;2022-08-24T03:49:15;18.10;99.90
18930;DHT22;43305;52.186;5.598;2022-08-24T03:51:42;18.20;99.90
18930;DHT22;43305;52.186;5.598;2022-08-24T03:54:10;18.10;99.90
18930;DHT22;43305;52.186;5.598;2022-08-24T03:56:38;18.10;99.90
18930;DHT22;43305;52.186;5.598;2022-08-24T03:59:12;18.10;99.90
18930;DHT22;43305;52.186;5.598;2022-08-24T04:01:39;18.10;99.90
18930;DHT22;43305;52.186;5.598;2022-08-24T04:04:06;18.00;99.90
18930;DHT22;43305;52.186;5.598;2022-08-24T04:06:36;18.00;99.90
18930;DHT22;43305;52.186;5.598;2022-08-24T04:09:18;18.00;99.90
18930;DHT22;43305;52.186;5.598;2022-08-24T04:11:46;18.00;99.90
18930;DHT22;43305;52.186;5.598;2022-08-24T04:14:16;18.00;99.90
18930;DHT22;43305;52.186;5.598;2022-08-24T04:16:46;18.00;99.90
18930;DHT22;43305;52.186;5.598;2022-08-24T04:19:17;18.00;99.90
18930;DHT22;43305;52.186;5.598;2022-08-24T04:21:44;18.00;99.90
18930;DHT22;43305;52.186;5.598;2022-08-24T04:24:12;18.00;99.90
18930;DHT22;43305;52.186;5.598;2022-08-24T04:26:49;17.90;99.90
18930;DHT22;43305;52.186;5.598;2022-08-24T04:29:23;18.00;99.90
18930;DHT22;43305;52.186;5.598;2022-08-24T04:31:50;17.90;99.90
18930;DHT22;43305;52.186;5.598;2022-08-24T04:34:17;17.80;99.90
18930;DHT22;43305;52.186;5.598;2022-08-24T04:36:46;17.90;99.90
18930;DHT22;43305;52.186;5.598;2022-08-24T04:39:14;17.80;99.90
18930;DHT22;43305;52.186;5.598;2022-08-24T04:41:44;17.90;99.90
18930;DHT22;43305;52.186;5.598;2022-08-24T04:44:11;17.90;99.90
18930;DHT22;43305;52.186;5.598;2022-08-24T04:46:39;17.90;99.90
18930;DHT22;43305;52.186;5.598;2022-08-24T04:49:06;17.90;99.90
18930;DHT22;43305;52.186;5.598;2022-08-24T04:51:33;17.90;99.90
18930;DHT22;43305;52.186;5.598;2022-08-24T04:54:03;17.90;99.90
18930;DHT22;43305;52.186;5.598;2022-08-24T04:56:38;17.90;99.90
18930;DHT22;43305;52.186;5.598;2022-08-24T04:59:05;17.90;99.90
18930;DHT22;43305;52.186;5.598;2022-08-24T05:01:36;17.80;99.90
18930;DHT22;43305;52.186;5.598;2022-08-24T05:04:10;17.80;99.90
18930;DHT22;43305;52.186;5.598;2022-08-24T05:06:39;17.80;99.90
18930;DHT22;43305;52.186;5.598;2022-08-24T05:09:06;17.90;99.90
18930;DHT22;43305;52.186;5.598;2022-08-24T05:11:35;17.90;99.90
18930;DHT22;43305;52.186;5.598;2022-08-24T05:14:02;17.90;99.90
18930;DHT22;43305;52.186;5.598;2022-08-24T05:16:29;18.00;99.90
18930;DHT22;43305;52.186;5.598;2022-08-24T05:18:57;18.00;99.90
18930;DHT22;43305;52.186;5.598;2022-08-24T05:21:26;18.00;99.90
18930;DHT22;43305;52.186;5.598;2022-08-24T05:23:55;18.00;99.90
18930;DHT22;43305;52.186;5.598;2022-08-24T05:26:23;18.10;99.90
18930;DHT22;43305;52.186;5.598;2022-08-24T05:28:52;18.10;99.90
18930;DHT22;43305;52.186;5.598;2022-08-24T05:31:23;18.20;99.90
18930;DHT22;43305;52.186;5.598;2022-08-24T05:33:50;18.20;99.90
18930;DHT22;43305;52.186;5.598;2022-08-24T05:36:20;18.20;99.90
18930;DHT22;43305;52.186;5.598;2022-08-24T05:38:50;18.20;99.90
18930;DHT22;43305;52.186;5.598;2022-08-24T05:41:18;18.30;99.90
18930;DHT22;43305;52.186;5.598;2022-08-24T05:43:45;18.20;99.90
18930;DHT22;43305;52.186;5.598;2022-08-24T05:46:13;18.30;99.90
18930;DHT22;43305;52.186;5.598;2022-08-24T05:48:40;18.30;99.90
18930;DHT22;43305;52.186;5.598;2022-08-24T05:51:09;18.40;99.90
18930;DHT22;43305;52.186;5.598;2022-08-24T05:53:37;18.40;99.90
18930;DHT22;43305;52.186;5.598;2022-08-24T05:56:11;18.50;99.90
18930;DHT22;43305;52.186;5.598;2022-08-24T05:58:39;18.60;99.90
18930;DHT22;43305;52.186;5.598;2022-08-24T06:01:06;18.70;99.90
18930;DHT22;43305;52.186;5.598;2022-08-24T06:03:34;18.80;99.90
18930;DHT22;43305;52.186;5.598;2022-08-24T06:06:02;18.80;99.90
18930;DHT22;43305;52.186;5.598;2022-08-24T06:08:31;18.90;99.90
18930;DHT22;43305;52.186;5.598;2022-08-24T06:10:59;19.00;99.90
18930;DHT22;43305;52.186;5.598;2022-08-24T06:13:29;19.00;99.90
18930;DHT22;43305;52.186;5.598;2022-08-24T06:16:05;19.10;99.90
18930;DHT22;43305;52.186;5.598;2022-08-24T06:18:34;19.20;99.90
18930;DHT22;43305;52.186;5.598;2022-08-24T06:21:04;19.40;99.90
18930;DHT22;43305;52.186;5.598;2022-08-24T06:23:32;19.50;99.90
18930;DHT22;43305;52.186;5.598;2022-08-24T06:26:00;19.50;99.90
18930;DHT22;43305;52.186;5.598;2022-08-24T06:28:42;19.60;99.90
18930;DHT22;43305;52.186;5.598;2022-08-24T06:31:09;19.70;99.90
18930;DHT22;43305;52.186;5.598;2022-08-24T06:33:35;19.90;99.90
18930;DHT22;43305;52.186;5.598;2022-08-24T06:36:03;20.00;99.90
18930;DHT22;43305;52.186;5.598;2022-08-24T06:38:35;20.10;99.90
18930;DHT22;43305;52.186;5.598;2022-08-24T06:41:05;20.30;99.90
18930;DHT22;43305;52.186;5.598;2022-08-24T06:43:34;20.40;99.90
18930;DHT22;43305;52.186;5.598;2022-08-24T06:46:03;20.50;99.90
18930;DHT22;43305;52.186;5.598;2022-08-24T06:48:32;20.60;99.90
18930;DHT22;43305;52.186;5.598;2022-08-24T06:51:09;20.70;99.90
18930;DHT22;43305;52.186;5.598;2022-08-24T06:53:36;20.90;99.90
18930;DHT22;43305;52.186;5.598;2022-08-24T06:56:04;20.90;99.90
18930;DHT22;43305;52.186;5.598;2022-08-24T06:58:39;21.00;99.90
18930;DHT22;43305;52.186;5.598;2022-08-24T07:01:10;21.10;99.90
18930;DHT22;43305;52.186;5.598;2022-08-24T07:03:40;21.20;99.90
18930;DHT22;43305;52.186;5.598;2022-08-24T07:06:10;21.40;99.90
18930;DHT22;43305;52.186;5.598;2022-08-24T07:08:39;21.40;99.90
18930;DHT22;43305;52.186;5.598;2022-08-24T07:11:07;21.60;99.90
18930;DHT22;43305;52.186;5.598;2022-08-24T07:13:37;21.70;99.90
18930;DHT22;43305;52.186;5.598;2022-08-24T07:16:05;21.90;99.90
18930;DHT22;43305;52.186;5.598;2022-08-24T07:18:42;22.00;99.90
18930;DHT22;43305;52.186;5.598;2022-08-24T07:21:11;22.20;99.90
18930;DHT22;43305;52.186;5.598;2022-08-24T07:23:38;22.40;99.90
18930;DHT22;43305;52.186;5.598;2022-08-24T07:26:06;22.60;99.90
18930;DHT22;43305;52.186;5.598;2022-08-24T07:28:35;22.80;99.90
18930;DHT22;43305;52.186;5.598;2022-08-24T07:31:06;23.10;99.90
18930;DHT22;43305;52.186;5.598;2022-08-24T07:33:39;23.20;99.90
18930;DHT22;43305;52.186;5.598;2022-08-24T07:36:10;23.40;99.90
18930;DHT22;43305;52.186;5.598;2022-08-24T07:38:37;23.60;99.90
18930;DHT22;43305;52.186;5.598;2022-08-24T07:41:22;23.70;99.90
18930;DHT22;43305;52.186;5.598;2022-08-24T07:43:50;23.80;99.90
18930;DHT22;43305;52.186;5.598;2022-08-24T07:46:22;23.90;99.90
18930;DHT22;43305;52.186;5.598;2022-08-24T07:48:51;24.00;99.90
18930;DHT22;43305;52.186;5.598;2022-08-24T07:51:20;24.10;99.90
18930;DHT22;43305;52.186;5.598;2022-08-24T07:53:48;24.30;99.90
18930;DHT22;43305;52.186;5.598;2022-08-24T07:56:18;24.40;99.90
18930;DHT22;43305;52.186;5.598;2022-08-24T07:58:47;24.60;99.90
18930;DHT22;43305;52.186;5.598;2022-08-24T08:01:14;24.70;99.90
18930;DHT22;43305;52.186;5.598;2022-08-24T08:03:42;24.70;99.90
18930;DHT22;43305;52.186;5.598;2022-08-24T08:06:15;24.70;99.90
18930;DHT22;43305;52.186;5.598;2022-08-24T08:08:48;24.80;99.90
18930;DHT22;43305;52.186;5.598;2022-08-24T08:11:18;24.90;99.90
18930;DHT22;43305;52.186;5.598;2022-08-24T08:13:51;25.00;99.90
18930;DHT22;43305;52.186;5.598;2022-08-24T08:16:24;25.10;99.90
18930;DHT22;43305;52.186;5.598;2022-08-24T08:18:51;25.20;99.90
18930;DHT22;43305;52.186;5.598;2022-08-24T08:21:19;25.30;99.90
18930;DHT22;43305;52.186;5.598;2022-08-24T08:24:00;25.40;99.90
18930;DHT22;43305;52.186;5.598;2022-08-24T08:26:41;25.40;99.90
18930;DHT22;43305;52.186;5.598;2022-08-24T08:29:12;25.30;99.90
18930;DHT22;43305;52.186;5.598;2022-08-24T08:31:39;25.20;99.90
18930;DHT22;43305;52.186;5.598;2022-08-24T08:34:07;25.30;99.90
18930;DHT22;43305;52.186;5.598;2022-08-24T08:36:41;25.40;99.90
18930;DHT22;43305;52.186;5.598;2022-08-24T08:39:10;25.50;99.90
18930;DHT22;43305;52.186;5.598;2022-08-24T08:41:55;25.60;99.90
18930;DHT22;43305;52.186;5.598;2022-08-24T08:44:37;25.70;99.90
18930;DHT22;43305;52.186;5.598;2022-08-24T08:47:22;25.60;99.90
18930;DHT22;43305;52.186;5.598;2022-08-24T08:50:04;25.70;99.90
18930;DHT22;43305;52.186;5.598;2022-08-24T08:52:55;25.70;99.90
18930;DHT22;43305;52.186;5.598;2022-08-24T08:55:36;25.70;99.90
18930;DHT22;43305;52.186;5.598;2022-08-24T08:58:16;25.60;99.90
18930;DHT22;43305;52.186;5.598;2022-08-24T09:00:59;25.60;99.90
18930;DHT22;43305;52.186;5.598;2022-08-24T09:03:38;25.70;99.90
18930;DHT22;43305;52.186;5.598;2022-08-24T09:06:18;25.90;99.90
18930;DHT22;43305;52.186;5.598;2022-08-24T09:09:09;26.00;99.90
18930;DHT22;43305;52.186;5.598;2022-08-24T09:11:50;26.10;99.90
18930;DHT22;43305;52.186;5.598;2022-08-24T09:14:36;26.30;99.90
18930;DHT22;43305;52.186;5.598;2022-08-24T09:17:16;26.50;99.90
18930;DHT22;43305;52.186;5.598;2022-08-24T09:20:00;26.70;99.90
18930;DHT22;43305;52.186;5.598;2022-08-24T09:22:38;26.80;99.90
18930;DHT22;43305;52.186;5.598;2022-08-24T09:25:19;26.80;99.90
18930;DHT22;43305;52.186;5.598;2022-08-24T09:28:03;26.80;99.90
18930;DHT22;43305;52.186;5.598;2022-08-24T09:30:57;26.70;99.90
18930;DHT22;43305;52.186;5.598;2022-08-24T09:33:38;26.50;99.90
18930;DHT22;43305;52.186;5.598;2022-08-24T09:36:08;26.40;99.90
18930;DHT22;43305;52.186;5.598;2022-08-24T09:38:55;26.50;99.90
18930;DHT22;43305;52.186;5.598;2022-08-24T09:41:44;26.60;99.90
18930;DHT22;43305;52.186;5.598;2022-08-24T09:44:37;26.80;99.90
18930;DHT22;43305;52.186;5.598;2022-08-24T09:47:28;26.90;99.90
18930;DHT22;43305;52.186;5.598;2022-08-24T09:53:23;27.00;99.90
18930;DHT22;43305;52.186;5.598;2022-08-24T09:56:00;27.30;99.90
18930;DHT22;43305;52.186;5.598;2022-08-24T09:58:41;27.30;99.90
18930;DHT22;43305;52.186;5.598;2022-08-24T10:01:16;27.20;99.90
18930;DHT22;43305;52.186;5.598;2022-08-24T10:03:54;27.10;99.90
18930;DHT22;43305;52.186;5.598;2022-08-24T10:06:31;27.20;99.90
18930;DHT22;43305;52.186;5.598;2022-08-24T10:09:19;27.20;99.90
18930;DHT22;43305;52.186;5.598;2022-08-24T10:11:57;27.30;99.90
18930;DHT22;43305;52.186;5.598;2022-08-24T10:14:44;27.40;99.90
18930;DHT22;43305;52.186;5.598;2022-08-24T10:17:21;27.40;99.90
18930;DHT22;43305;52.186;5.598;2022-08-24T10:20:02;27.40;99.90
18930;DHT22;43305;52.186;5.598;2022-08-24T10:22:40;27.20;99.90
18930;DHT22;43305;52.186;5.598;2022-08-24T10:25:26;27.40;99.90
18930;DHT22;43305;52.186;5.598;2022-08-24T10:28:19;27.60;99.90
18930;DHT22;43305;52.186;5.598;2022-08-24T10:31:01;27.60;99.90
18930;DHT22;43305;52.186;5.598;2022-08-24T10:33:34;27.60;99.90
18930;DHT22;43305;52.186;5.598;2022-08-24T10:36:23;27.80;99.90
18930;DHT22;43305;52.186;5.598;2022-08-24T10:39:03;28.00;99.90
18930;DHT22;43305;52.186;5.598;2022-08-24T10:42:07;28.00;99.90
18930;DHT22;43305;52.186;5.598;2022-08-24T10:45:15;28.00;99.90
18930;DHT22;43305;52.186;5.598;2022-08-24T10:48:08;28.20;99.90
18930;DHT22;43305;52.186;5.598;2022-08-24T10:50:45;28.40;99.90
18930;DHT22;43305;52.186;5.598;2022-08-24T10:53:21;28.60;99.90
18930;DHT22;43305;52.186;5.598;2022-08-24T10:58:46;28.50;99.90
18930;DHT22;43305;52.186;5.598;2022-08-24T11:01:22;28.50;99.90
18930;DHT22;43305;52.186;5.598;2022-08-24T11:03:58;28.60;99.90
18930;DHT22;43305;52.186;5.598;2022-08-24T11:06:27;28.70;99.90
18930;DHT22;43305;52.186;5.598;2022-08-24T11:09:02;28.60;99.90
18930;DHT22;43305;52.186;5.598;2022-08-24T11:11:32;28.50;99.90
18930;DHT22;43305;52.186;5.598;2022-08-24T11:14:23;28.50;99.90
18930;DHT22;43305;52.186;5.598;2022-08-24T11:16:50;28.40;99.90
18930;DHT22;43305;52.186;5.598;2022-08-24T11:19:32;28.60;99.90
18930;DHT22;43305;52.186;5.598;2022-08-24T11:22:03;28.70;99.90
18930;DHT22;43305;52.186;5.598;2022-08-24T11:24:39;28.80;99.90
18930;DHT22;43305;52.186;5.598;2022-08-24T11:27:18;28.80;99.90
18930;DHT22;43305;52.186;5.598;2022-08-24T11:29:59;29.00;99.90
18930;DHT22;43305;52.186;5.598;2022-08-24T11:32:43;29.20;99.90
18930;DHT22;43305;52.186;5.598;2022-08-24T11:35:19;29.30;99.90
18930;DHT22;43305;52.186;5.598;2022-08-24T11:37:49;29.30;99.90
18930;DHT22;43305;52.186;5.598;2022-08-24T11:40:18;29.40;99.90
18930;DHT22;43305;52.186;5.598;2022-08-24T11:43:05;29.30;99.90
18930;DHT22;43305;52.186;5.598;2022-08-24T11:45:40;29.40;99.90
18930;DHT22;43305;52.186;5.598;2022-08-24T11:48:18;29.40;99.90
18930;DHT22;43305;52.186;5.598;2022-08-24T11:50:54;29.40;99.90
18930;DHT22;43305;52.186;5.598;2022-08-24T11:53:33;29.30;99.90
18930;DHT22;43305;52.186;5.598;2022-08-24T11:56:06;29.10;99.90
18930;DHT22;43305;52.186;5.598;2022-08-24T11:58:43;29.00;99.90
18930;DHT22;43305;52.186;5.598;2022-08-24T12:01:17;29.10;99.90
18930;DHT22;43305;52.186;5.598;2022-08-24T12:04:00;29.30;99.90
18930;DHT22;43305;52.186;5.598;2022-08-24T12:06:45;29.50;99.90
18930;DHT22;43305;52.186;5.598;2022-08-24T12:09:29;29.50;99.90
18930;DHT22;43305;52.186;5.598;2022-08-24T12:12:02;29.50;99.90
18930;DHT22;43305;52.186;5.598;2022-08-24T12:14:39;29.50;99.90
18930;DHT22;43305;52.186;5.598;2022-08-24T12:17:12;29.50;99.90
18930;DHT22;43305;52.186;5.598;2022-08-24T12:19:47;29.30;99.90
18930;DHT22;43305;52.186;5.598;2022-08-24T12:22:17;29.10;99.90
18930;DHT22;43305;52.186;5.598;2022-08-24T12:24:48;29.10;99.90
18930;DHT22;43305;52.186;5.598;2022-08-24T12:27:19;29.30;99.90
18930;DHT22;43305;52.186;5.598;2022-08-24T12:29:51;29.40;99.90
18930;DHT22;43305;52.186;5.598;2022-08-24T12:32:24;29.40;99.90
18930;DHT22;43305;52.186;5.598;2022-08-24T12:34:54;29.20;99.90
18930;DHT22;43305;52.186;5.598;2022-08-24T12:37:29;29.10;99.90
18930;DHT22;43305;52.186;5.598;2022-08-24T12:40:03;29.20;99.90
18930;DHT22;43305;52.186;5.598;2022-08-24T12:42:38;29.40;99.90
18930;DHT22;43305;52.186;5.598;2022-08-24T12:45:12;29.40;99.90
18930;DHT22;43305;52.186;5.598;2022-08-24T12:47:44;29.40;99.90
18930;DHT22;43305;52.186;5.598;2022-08-24T12:50:19;29.30;99.90
18930;DHT22;43305;52.186;5.598;2022-08-24T12:53:10;29.10;99.90
18930;DHT22;43305;52.186;5.598;2022-08-24T12:55:56;29.10;99.90
18930;DHT22;43305;52.186;5.598;2022-08-24T12:58:42;29.10;99.90
18930;DHT22;43305;52.186;5.598;2022-08-24T13:01:15;29.00;99.90
18930;DHT22;43305;52.186;5.598;2022-08-24T13:03:47;29.00;99.90
18930;DHT22;43305;52.186;5.598;2022-08-24T13:06:18;29.00;99.90
18930;DHT22;43305;52.186;5.598;2022-08-24T13:08:49;29.10;99.90
18930;DHT22;43305;52.186;5.598;2022-08-24T13:11:29;29.30;99.90
18930;DHT22;43305;52.186;5.598;2022-08-24T13:14:14;29.60;99.90
18930;DHT22;43305;52.186;5.598;2022-08-24T13:16:46;29.80;99.90
18930;DHT22;43305;52.186;5.598;2022-08-24T13:19:17;29.80;99.90
18930;DHT22;43305;52.186;5.598;2022-08-24T13:21:58;29.90;99.90
18930;DHT22;43305;52.186;5.598;2022-08-24T13:24:43;30.00;99.90
18930;DHT22;43305;52.186;5.598;2022-08-24T13:30:21;30.50;99.90
18930;DHT22;43305;52.186;5.598;2022-08-24T13:32:58;30.60;99.90
18930;DHT22;43305;52.186;5.598;2022-08-24T13:38:39;30.90;99.90
18930;DHT22;43305;52.186;5.598;2022-08-24T13:41:18;31.30;99.90
18930;DHT22;43305;52.186;5.598;2022-08-24T13:43:52;31.30;99.90
18930;DHT22;43305;52.186;5.598;2022-08-24T13:46:29;31.20;99.90
18930;DHT22;43305;52.186;5.598;2022-08-24T13:49:03;31.10;99.90
18930;DHT22;43305;52.186;5.598;2022-08-24T13:51:38;31.00;99.90
18930;DHT22;43305;52.186;5.598;2022-08-24T13:54:21;31.10;99.90
18930;DHT22;43305;52.186;5.598;2022-08-24T13:57:23;31.20;99.90
18930;DHT22;43305;52.186;5.598;2022-08-24T14:00:01;31.50;99.90
18930;DHT22;43305;52.186;5.598;2022-08-24T14:02:47;31.50;99.90
18930;DHT22;43305;52.186;5.598;2022-08-24T14:05:25;31.80;99.90
18930;DHT22;43305;52.186;5.598;2022-08-24T14:08:02;31.50;99.90
18930;DHT22;43305;52.186;5.598;2022-08-24T14:10:43;31.20;99.90
18930;DHT22;43305;52.186;5.598;2022-08-24T14:13:29;30.80;99.90
18930;DHT22;43305;52.186;5.598;2022-08-24T14:16:02;30.60;99.90
18930;DHT22;43305;52.186;5.598;2022-08-24T14:18:56;30.30;99.90
18930;DHT22;43305;52.186;5.598;2022-08-24T14:21:35;30.20;99.90
18930;DHT22;43305;52.186;5.598;2022-08-24T14:24:10;30.20;99.90
18930;DHT22;43305;52.186;5.598;2022-08-24T14:26:58;30.20;99.90
18930;DHT22;43305;52.186;5.598;2022-08-24T14:29:33;30.30;99.90
18930;DHT22;43305;52.186;5.598;2022-08-24T14:37:53;30.40;99.90
18930;DHT22;43305;52.186;5.598;2022-08-24T14:40:30;30.20;99.90
18930;DHT22;43305;52.186;5.598;2022-08-24T14:43:21;30.20;99.90
18930;DHT22;43305;52.186;5.598;2022-08-24T14:45:59;30.40;99.90
18930;DHT22;43305;52.186;5.598;2022-08-24T14:48:49;30.90;99.90
18930;DHT22;43305;52.186;5.598;2022-08-24T14:51:34;31.50;99.90
18930;DHT22;43305;52.186;5.598;2022-08-24T14:54:15;32.30;99.90
18930;DHT22;43305;52.186;5.598;2022-08-24T14:57:11;33.00;99.90
18930;DHT22;43305;52.186;5.598;2022-08-24T14:59:47;33.30;99.90
18930;DHT22;43305;52.186;5.598;2022-08-24T15:02:46;33.90;99.90
18930;DHT22;43305;52.186;5.598;2022-08-24T15:05:22;34.50;99.90
18930;DHT22;43305;52.186;5.598;2022-08-24T15:07:54;35.00;99.90
18930;DHT22;43305;52.186;5.598;2022-08-24T15:10:27;35.30;99.90
18930;DHT22;43305;52.186;5.598;2022-08-24T15:13:07;35.50;99.90
18930;DHT22;43305;52.186;5.598;2022-08-24T15:15:40;35.50;99.90
18930;DHT22;43305;52.186;5.598;2022-08-24T15:18:21;35.70;99.90
18930;DHT22;43305;52.186;5.598;2022-08-24T15:21:05;35.70;99.90
18930;DHT22;43305;52.186;5.598;2022-08-24T15:23:48;35.90;99.90
18930;DHT22;43305;52.186;5.598;2022-08-24T15:26:28;35.90;99.90
18930;DHT22;43305;52.186;5.598;2022-08-24T15:29:14;35.90;99.90
18930;DHT22;43305;52.186;5.598;2022-08-24T15:31:42;35.60;99.90
18930;DHT22;43305;52.186;5.598;2022-08-24T15:34:32;35.20;99.90
18930;DHT22;43305;52.186;5.598;2022-08-24T15:37:00;35.20;99.90
18930;DHT22;43305;52.186;5.598;2022-08-24T15:39:28;35.20;99.90
18930;DHT22;43305;52.186;5.598;2022-08-24T15:41:55;35.40;99.90
18930;DHT22;43305;52.186;5.598;2022-08-24T15:44:25;35.30;99.90
18930;DHT22;43305;52.186;5.598;2022-08-24T15:46:58;35.50;99.90
18930;DHT22;43305;52.186;5.598;2022-08-24T15:49:30;35.70;99.90
18930;DHT22;43305;52.186;5.598;2022-08-24T15:52:04;36.00;99.90
18930;DHT22;43305;52.186;5.598;2022-08-24T15:54:34;35.90;99.90
18930;DHT22;43305;52.186;5.598;2022-08-24T15:57:08;35.80;99.90
18930;DHT22;43305;52.186;5.598;2022-08-24T15:59:45;35.30;99.90
18930;DHT22;43305;52.186;5.598;2022-08-24T16:02:24;35.20;99.90
18930;DHT22;43305;52.186;5.598;2022-08-24T16:04:59;35.00;99.90
18930;DHT22;43305;52.186;5.598;2022-08-24T16:07:32;35.00;99.90
18930;DHT22;43305;52.186;5.598;2022-08-24T16:10:02;35.00;99.90
18930;DHT22;43305;52.186;5.598;2022-08-24T16:12:30;35.00;99.90
18930;DHT22;43305;52.186;5.598;2022-08-24T16:15:10;35.00;99.90
18930;DHT22;43305;52.186;5.598;2022-08-24T16:17:39;35.20;99.90
18930;DHT22;43305;52.186;5.598;2022-08-24T16:20:15;35.20;99.90
18930;DHT22;43305;52.186;5.598;2022-08-24T16:22:56;35.30;99.90
18930;DHT22;43305;52.186;5.598;2022-08-24T16:25:26;35.20;99.90
18930;DHT22;43305;52.186;5.598;2022-08-24T16:27:59;34.80;99.90
18930;DHT22;43305;52.186;5.598;2022-08-24T16:30:36;34.30;99.90